sensor_id;sensor_type;location;lat;lon;timestamp;P1;durP1;ratioP1;P2;durP2;ratioP2
48911;SDS011;34722;52.108;5.044;2022-08-19T00:01:28;10.25;;;8.45;;
48911;SDS011;34722;52.108;5.044;2022-08-19T00:04:15;9.77;;;8.88;;
48911;SDS011;34722;52.108;5.044;2022-08-19T00:07:18;10.52;;;8.55;;
48911;SDS011;34722;52.108;5.044;2022-08-19T00:09:49;10.15;;;9.07;;
48911;SDS011;34722;52.108;5.044;2022-08-19T00:12:24;9.60;;;7.90;;
48911;SDS011;34722;52.108;5.044;2022-08-19T00:15:07;10.63;;;8.85;;
48911;SDS011;34722;52.108;5.044;2022-08-19T00:17:45;11.77;;;9.23;;
48911;SDS011;34722;52.108;5.044;2022-08-19T00:20:25;10.18;;;8.95;;
48911;SDS011;34722;52.108;5.044;2022-08-19T00:22:53;15.63;;;9.38;;
48911;SDS011;34722;52.108;5.044;2022-08-19T00:25:31;11.05;;;8.60;;
48911;SDS011;34722;52.108;5.044;2022-08-19T00:27:58;13.95;;;10.30;;
48911;SDS011;34722;52.108;5.044;2022-08-19T00:30:38;15.15;;;10.40;;
48911;SDS011;34722;52.108;5.044;2022-08-19T00:33:23;10.85;;;9.48;;
48911;SDS011;34722;52.108;5.044;2022-08-19T00:35:51;14.70;;;10.98;;
48911;SDS011;34722;52.108;5.044;2022-08-19T00:38:27;12.05;;;9.93;;
48911;SDS011;34722;52.108;5.044;2022-08-19T00:40:53;15.38;;;11.75;;
48911;SDS011;34722;52.108;5.044;2022-08-19T00:43:34;14.57;;;12.35;;
48911;SDS011;34722;52.108;5.044;2022-08-19T00:46:03;17.95;;;13.52;;
48911;SDS011;34722;52.108;5.044;2022-08-19T00:48:29;17.63;;;13.48;;
48911;SDS011;34722;52.108;5.044;2022-08-19T00:50:56;15.95;;;13.32;;
48911;SDS011;34722;52.108;5.044;2022-08-19T00:53:24;17.35;;;14.63;;
48911;SDS011;34722;52.108;5.044;2022-08-19T00:56:11;26.10;;;19.00;;
48911;SDS011;34722;52.108;5.044;2022-08-19T00:58:40;23.40;;;17.63;;
48911;SDS011;34722;52.108;5.044;2022-08-19T01:01:06;27.33;;;20.40;;
48911;SDS011;34722;52.108;5.044;2022-08-19T01:03:40;35.03;;;22.27;;
48911;SDS011;34722;52.108;5.044;2022-08-19T01:06:19;29.63;;;20.58;;
48911;SDS011;34722;52.108;5.044;2022-08-19T01:11:58;32.72;;;22.73;;
48911;SDS011;34722;52.108;5.044;2022-08-19T01:17:55;44.13;;;29.20;;
48911;SDS011;34722;52.108;5.044;2022-08-19T01:20:33;43.70;;;28.23;;
48911;SDS011;34722;52.108;5.044;2022-08-19T01:23:02;47.88;;;29.58;;
48911;SDS011;34722;52.108;5.044;2022-08-19T01:25:36;49.10;;;31.17;;
48911;SDS011;34722;52.108;5.044;2022-08-19T01:28:14;49.53;;;30.83;;
48911;SDS011;34722;52.108;5.044;2022-08-19T01:30:42;47.67;;;29.55;;
48911;SDS011;34722;52.108;5.044;2022-08-19T01:33:08;45.83;;;29.75;;
48911;SDS011;34722;52.108;5.044;2022-08-19T01:35:34;51.47;;;30.92;;
48911;SDS011;34722;52.108;5.044;2022-08-19T01:38:02;46.92;;;30.85;;
48911;SDS011;34722;52.108;5.044;2022-08-19T01:40:34;54.17;;;32.47;;
48911;SDS011;34722;52.108;5.044;2022-08-19T01:43:04;51.45;;;32.33;;
48911;SDS011;34722;52.108;5.044;2022-08-19T01:45:31;50.65;;;32.20;;
48911;SDS011;34722;52.108;5.044;2022-08-19T01:48:02;49.95;;;30.70;;
48911;SDS011;34722;52.108;5.044;2022-08-19T01:50:29;44.40;;;29.50;;
48911;SDS011;34722;52.108;5.044;2022-08-19T01:53:05;46.35;;;30.05;;
48911;SDS011;34722;52.108;5.044;2022-08-19T01:55:35;45.58;;;30.38;;
48911;SDS011;34722;52.108;5.044;2022-08-19T01:58:03;53.17;;;32.38;;
48911;SDS011;34722;52.108;5.044;2022-08-19T02:00:32;50.78;;;31.90;;
48911;SDS011;34722;52.108;5.044;2022-08-19T02:02:58;55.13;;;32.22;;
48911;SDS011;34722;52.108;5.044;2022-08-19T02:05:25;52.65;;;31.02;;
48911;SDS011;34722;52.108;5.044;2022-08-19T02:07:54;51.45;;;33.38;;
48911;SDS011;34722;52.108;5.044;2022-08-19T02:10:21;57.42;;;33.50;;
48911;SDS011;34722;52.108;5.044;2022-08-19T02:12:48;61.97;;;35.50;;
48911;SDS011;34722;52.108;5.044;2022-08-19T02:15:14;46.78;;;29.85;;
48911;SDS011;34722;52.108;5.044;2022-08-19T02:17:43;47.00;;;31.30;;
48911;SDS011;34722;52.108;5.044;2022-08-19T02:20:09;54.08;;;31.58;;
48911;SDS011;34722;52.108;5.044;2022-08-19T02:22:35;51.42;;;31.67;;
48911;SDS011;34722;52.108;5.044;2022-08-19T02:25:01;57.53;;;32.72;;
48911;SDS011;34722;52.108;5.044;2022-08-19T02:27:29;52.63;;;32.67;;
48911;SDS011;34722;52.108;5.044;2022-08-19T02:29:55;50.83;;;31.23;;
48911;SDS011;34722;52.108;5.044;2022-08-19T02:32:21;52.08;;;29.42;;
48911;SDS011;34722;52.108;5.044;2022-08-19T02:34:47;46.55;;;30.20;;
48911;SDS011;34722;52.108;5.044;2022-08-19T02:37:13;54.90;;;32.38;;
48911;SDS011;34722;52.108;5.044;2022-08-19T02:39:57;57.33;;;32.53;;
48911;SDS011;34722;52.108;5.044;2022-08-19T02:42:24;54.67;;;32.92;;
48911;SDS011;34722;52.108;5.044;2022-08-19T02:44:50;53.97;;;30.13;;
48911;SDS011;34722;52.108;5.044;2022-08-19T02:47:16;52.45;;;30.45;;
48911;SDS011;34722;52.108;5.044;2022-08-19T02:49:43;59.05;;;32.97;;
48911;SDS011;34722;52.108;5.044;2022-08-19T02:52:09;56.97;;;33.25;;
48911;SDS011;34722;52.108;5.044;2022-08-19T02:54:36;61.45;;;33.95;;
48911;SDS011;34722;52.108;5.044;2022-08-19T02:57:02;57.88;;;34.17;;
48911;SDS011;34722;52.108;5.044;2022-08-19T02:59:32;58.90;;;33.42;;
48911;SDS011;34722;52.108;5.044;2022-08-19T03:01:57;63.70;;;35.50;;
48911;SDS011;34722;52.108;5.044;2022-08-19T03:04:23;69.22;;;37.28;;
48911;SDS011;34722;52.108;5.044;2022-08-19T03:06:49;57.78;;;32.80;;
48911;SDS011;34722;52.108;5.044;2022-08-19T03:09:16;65.53;;;34.53;;
48911;SDS011;34722;52.108;5.044;2022-08-19T03:11:43;71.38;;;37.22;;
48911;SDS011;34722;52.108;5.044;2022-08-19T03:14:09;61.80;;;33.88;;
48911;SDS011;34722;52.108;5.044;2022-08-19T03:16:43;62.28;;;34.72;;
48911;SDS011;34722;52.108;5.044;2022-08-19T03:19:12;61.22;;;35.13;;
48911;SDS011;34722;52.108;5.044;2022-08-19T03:21:38;61.88;;;37.03;;
48911;SDS011;34722;52.108;5.044;2022-08-19T03:24:06;67.40;;;35.88;;
48911;SDS011;34722;52.108;5.044;2022-08-19T03:26:33;63.35;;;34.67;;
48911;SDS011;34722;52.108;5.044;2022-08-19T03:29:03;70.07;;;38.15;;
48911;SDS011;34722;52.108;5.044;2022-08-19T03:31:30;86.47;;;43.80;;
48911;SDS011;34722;52.108;5.044;2022-08-19T03:33:56;84.38;;;41.42;;
48911;SDS011;34722;52.108;5.044;2022-08-19T03:36:23;92.97;;;45.45;;
48911;SDS011;34722;52.108;5.044;2022-08-19T03:38:54;94.10;;;47.30;;
48911;SDS011;34722;52.108;5.044;2022-08-19T03:41:23;100.20;;;49.30;;
48911;SDS011;34722;52.108;5.044;2022-08-19T03:43:51;97.45;;;49.83;;
48911;SDS011;34722;52.108;5.044;2022-08-19T03:46:20;99.38;;;50.63;;
48911;SDS011;34722;52.108;5.044;2022-08-19T03:48:48;99.55;;;51.22;;
48911;SDS011;34722;52.108;5.044;2022-08-19T03:53:51;91.00;;;47.13;;
48911;SDS011;34722;52.108;5.044;2022-08-19T03:56:21;88.07;;;44.83;;
48911;SDS011;34722;52.108;5.044;2022-08-19T03:58:47;90.60;;;46.70;;
48911;SDS011;34722;52.108;5.044;2022-08-19T04:01:14;89.00;;;48.80;;
48911;SDS011;34722;52.108;5.044;2022-08-19T04:03:42;104.90;;;51.30;;
48911;SDS011;34722;52.108;5.044;2022-08-19T04:08:39;89.60;;;45.85;;
48911;SDS011;34722;52.108;5.044;2022-08-19T04:11:07;105.47;;;52.38;;
48911;SDS011;34722;52.108;5.044;2022-08-19T04:13:34;107.68;;;52.40;;
48911;SDS011;34722;52.108;5.044;2022-08-19T04:15:59;120.28;;;56.00;;
48911;SDS011;34722;52.108;5.044;2022-08-19T04:18:25;105.70;;;52.45;;
48911;SDS011;34722;52.108;5.044;2022-08-19T04:20:54;113.80;;;56.33;;
48911;SDS011;34722;52.108;5.044;2022-08-19T04:23:20;117.75;;;55.60;;
48911;SDS011;34722;52.108;5.044;2022-08-19T04:25:46;101.68;;;50.65;;
48911;SDS011;34722;52.108;5.044;2022-08-19T04:28:12;98.28;;;50.60;;
48911;SDS011;34722;52.108;5.044;2022-08-19T04:30:42;101.03;;;48.38;;
48911;SDS011;34722;52.108;5.044;2022-08-19T04:33:21;116.05;;;52.80;;
48911;SDS011;34722;52.108;5.044;2022-08-19T04:35:49;119.88;;;53.60;;
48911;SDS011;34722;52.108;5.044;2022-08-19T04:38:18;123.55;;;56.80;;
48911;SDS011;34722;52.108;5.044;2022-08-19T04:40:47;120.68;;;55.40;;
48911;SDS011;34722;52.108;5.044;2022-08-19T04:43:34;130.98;;;56.42;;
48911;SDS011;34722;52.108;5.044;2022-08-19T04:46:08;139.00;;;60.03;;
48911;SDS011;34722;52.108;5.044;2022-08-19T04:48:45;132.75;;;57.28;;
48911;SDS011;34722;52.108;5.044;2022-08-19T04:51:11;138.73;;;60.22;;
48911;SDS011;34722;52.108;5.044;2022-08-19T04:53:39;124.78;;;56.70;;
48911;SDS011;34722;52.108;5.044;2022-08-19T04:56:09;123.45;;;55.08;;
48911;SDS011;34722;52.108;5.044;2022-08-19T04:58:37;122.15;;;55.97;;
48911;SDS011;34722;52.108;5.044;2022-08-19T05:01:06;120.00;;;53.33;;
48911;SDS011;34722;52.108;5.044;2022-08-19T05:03:33;130.82;;;59.40;;
48911;SDS011;34722;52.108;5.044;2022-08-19T05:06:22;119.47;;;55.00;;
48911;SDS011;34722;52.108;5.044;2022-08-19T05:08:48;123.88;;;54.55;;
48911;SDS011;34722;52.108;5.044;2022-08-19T05:11:16;121.60;;;56.70;;
48911;SDS011;34722;52.108;5.044;2022-08-19T05:13:42;120.68;;;55.65;;
48911;SDS011;34722;52.108;5.044;2022-08-19T05:16:10;121.10;;;55.78;;
48911;SDS011;34722;52.108;5.044;2022-08-19T05:18:37;112.60;;;55.47;;
48911;SDS011;34722;52.108;5.044;2022-08-19T05:21:23;110.28;;;54.92;;
48911;SDS011;34722;52.108;5.044;2022-08-19T05:24:20;100.65;;;50.30;;
48911;SDS011;34722;52.108;5.044;2022-08-19T05:26:50;96.50;;;49.67;;
48911;SDS011;34722;52.108;5.044;2022-08-19T05:29:18;90.13;;;50.45;;
48911;SDS011;34722;52.108;5.044;2022-08-19T05:31:45;90.65;;;49.35;;
48911;SDS011;34722;52.108;5.044;2022-08-19T05:34:14;91.80;;;48.70;;
48911;SDS011;34722;52.108;5.044;2022-08-19T05:36:42;81.47;;;47.92;;
48911;SDS011;34722;52.108;5.044;2022-08-19T05:39:10;82.15;;;49.13;;
48911;SDS011;34722;52.108;5.044;2022-08-19T05:41:45;85.82;;;48.95;;
48911;SDS011;34722;52.108;5.044;2022-08-19T05:44:13;92.97;;;52.33;;
48911;SDS011;34722;52.108;5.044;2022-08-19T05:46:42;95.43;;;52.15;;
48911;SDS011;34722;52.108;5.044;2022-08-19T05:49:12;91.60;;;49.97;;
48911;SDS011;34722;52.108;5.044;2022-08-19T05:51:41;93.57;;;50.88;;
48911;SDS011;34722;52.108;5.044;2022-08-19T05:54:10;104.88;;;54.55;;
48911;SDS011;34722;52.108;5.044;2022-08-19T05:56:39;102.43;;;54.75;;
48911;SDS011;34722;52.108;5.044;2022-08-19T05:59:06;95.93;;;51.15;;
48911;SDS011;34722;52.108;5.044;2022-08-19T06:01:36;93.93;;;49.72;;
48911;SDS011;34722;52.108;5.044;2022-08-19T06:04:03;97.55;;;51.70;;
48911;SDS011;34722;52.108;5.044;2022-08-19T06:06:32;100.38;;;51.25;;
48911;SDS011;34722;52.108;5.044;2022-08-19T06:09:00;100.13;;;52.08;;
48911;SDS011;34722;52.108;5.044;2022-08-19T06:14:45;93.60;;;48.50;;
48911;SDS011;34722;52.108;5.044;2022-08-19T06:17:10;94.82;;;49.05;;
48911;SDS011;34722;52.108;5.044;2022-08-19T06:19:40;94.45;;;50.88;;
48911;SDS011;34722;52.108;5.044;2022-08-19T06:22:08;93.78;;;48.90;;
48911;SDS011;34722;52.108;5.044;2022-08-19T06:24:36;102.13;;;52.33;;
48911;SDS011;34722;52.108;5.044;2022-08-19T06:27:03;105.45;;;53.00;;
48911;SDS011;34722;52.108;5.044;2022-08-19T06:29:30;109.35;;;52.35;;
48911;SDS011;34722;52.108;5.044;2022-08-19T06:32:00;118.07;;;56.05;;
48911;SDS011;34722;52.108;5.044;2022-08-19T06:34:28;120.80;;;59.85;;
48911;SDS011;34722;52.108;5.044;2022-08-19T06:36:56;120.70;;;56.92;;
48911;SDS011;34722;52.108;5.044;2022-08-19T06:39:26;121.95;;;58.58;;
48911;SDS011;34722;52.108;5.044;2022-08-19T06:41:55;112.65;;;57.75;;
48911;SDS011;34722;52.108;5.044;2022-08-19T06:44:24;112.88;;;58.60;;
48911;SDS011;34722;52.108;5.044;2022-08-19T06:46:51;115.53;;;59.17;;
48911;SDS011;34722;52.108;5.044;2022-08-19T06:49:18;111.13;;;57.30;;
48911;SDS011;34722;52.108;5.044;2022-08-19T06:51:44;121.03;;;61.90;;
48911;SDS011;34722;52.108;5.044;2022-08-19T06:54:13;122.75;;;61.10;;
48911;SDS011;34722;52.108;5.044;2022-08-19T06:56:39;121.30;;;63.67;;
48911;SDS011;34722;52.108;5.044;2022-08-19T06:59:07;110.40;;;59.30;;
48911;SDS011;34722;52.108;5.044;2022-08-19T07:01:38;110.43;;;59.03;;
48911;SDS011;34722;52.108;5.044;2022-08-19T07:04:12;109.28;;;58.38;;
48911;SDS011;34722;52.108;5.044;2022-08-19T07:06:40;101.00;;;56.15;;
48911;SDS011;34722;52.108;5.044;2022-08-19T07:09:10;107.50;;;57.08;;
48911;SDS011;34722;52.108;5.044;2022-08-19T07:11:38;111.20;;;58.13;;
48911;SDS011;34722;52.108;5.044;2022-08-19T07:14:04;110.10;;;59.38;;
48911;SDS011;34722;52.108;5.044;2022-08-19T07:16:31;111.65;;;58.22;;
48911;SDS011;34722;52.108;5.044;2022-08-19T07:18:57;99.78;;;59.55;;
48911;SDS011;34722;52.108;5.044;2022-08-19T07:21:26;98.47;;;57.30;;
48911;SDS011;34722;52.108;5.044;2022-08-19T07:23:53;109.72;;;57.63;;
48911;SDS011;34722;52.108;5.044;2022-08-19T07:26:23;99.65;;;57.85;;
48911;SDS011;34722;52.108;5.044;2022-08-19T07:28:54;96.22;;;56.20;;
48911;SDS011;34722;52.108;5.044;2022-08-19T07:31:25;94.60;;;58.22;;
48911;SDS011;34722;52.108;5.044;2022-08-19T07:33:52;102.45;;;59.40;;
48911;SDS011;34722;52.108;5.044;2022-08-19T07:36:21;103.57;;;59.20;;
48911;SDS011;34722;52.108;5.044;2022-08-19T07:38:50;106.65;;;59.80;;
48911;SDS011;34722;52.108;5.044;2022-08-19T07:41:18;95.25;;;57.03;;
48911;SDS011;34722;52.108;5.044;2022-08-19T07:43:46;100.70;;;58.22;;
48911;SDS011;34722;52.108;5.044;2022-08-19T07:46:12;95.57;;;58.80;;
48911;SDS011;34722;52.108;5.044;2022-08-19T07:48:39;95.78;;;57.75;;
48911;SDS011;34722;52.108;5.044;2022-08-19T07:51:07;85.63;;;55.15;;
48911;SDS011;34722;52.108;5.044;2022-08-19T07:53:34;87.32;;;56.38;;
48911;SDS011;34722;52.108;5.044;2022-08-19T07:56:01;90.40;;;55.17;;
48911;SDS011;34722;52.108;5.044;2022-08-19T07:58:33;91.90;;;59.53;;
48911;SDS011;34722;52.108;5.044;2022-08-19T08:01:01;89.85;;;57.67;;
48911;SDS011;34722;52.108;5.044;2022-08-19T08:03:28;99.55;;;59.40;;
48911;SDS011;34722;52.108;5.044;2022-08-19T08:06:13;100.38;;;60.20;;
48911;SDS011;34722;52.108;5.044;2022-08-19T08:08:58;89.55;;;54.53;;
48911;SDS011;34722;52.108;5.044;2022-08-19T08:11:40;91.75;;;57.00;;
48911;SDS011;34722;52.108;5.044;2022-08-19T08:14:21;87.93;;;53.80;;
48911;SDS011;34722;52.108;5.044;2022-08-19T08:16:49;83.32;;;52.90;;
48911;SDS011;34722;52.108;5.044;2022-08-19T08:19:16;77.80;;;52.63;;
48911;SDS011;34722;52.108;5.044;2022-08-19T08:21:44;82.68;;;54.05;;
48911;SDS011;34722;52.108;5.044;2022-08-19T08:24:10;77.50;;;53.08;;
48911;SDS011;34722;52.108;5.044;2022-08-19T08:26:38;79.30;;;53.30;;
48911;SDS011;34722;52.108;5.044;2022-08-19T08:29:05;77.45;;;56.63;;
48911;SDS011;34722;52.108;5.044;2022-08-19T08:31:32;73.03;;;53.53;;
48911;SDS011;34722;52.108;5.044;2022-08-19T08:33:58;66.68;;;49.55;;
48911;SDS011;34722;52.108;5.044;2022-08-19T08:36:24;72.78;;;52.05;;
48911;SDS011;34722;52.108;5.044;2022-08-19T08:38:52;67.53;;;51.85;;
48911;SDS011;34722;52.108;5.044;2022-08-19T08:43:59;67.45;;;50.72;;
48911;SDS011;34722;52.108;5.044;2022-08-19T08:46:48;71.70;;;49.15;;
48911;SDS011;34722;52.108;5.044;2022-08-19T08:52:07;66.15;;;48.90;;
48911;SDS011;34722;52.108;5.044;2022-08-19T08:54:46;68.72;;;49.58;;
48911;SDS011;34722;52.108;5.044;2022-08-19T08:57:15;60.55;;;47.78;;
48911;SDS011;34722;52.108;5.044;2022-08-19T08:59:47;68.80;;;48.30;;
48911;SDS011;34722;52.108;5.044;2022-08-19T09:02:17;56.55;;;42.80;;
48911;SDS011;34722;52.108;5.044;2022-08-19T09:04:43;48.95;;;41.67;;
48911;SDS011;34722;52.108;5.044;2022-08-19T09:09:51;60.47;;;46.25;;
48911;SDS011;34722;52.108;5.044;2022-08-19T09:15:07;57.95;;;43.85;;
48911;SDS011;34722;52.108;5.044;2022-08-19T09:17:36;54.53;;;41.70;;
48911;SDS011;34722;52.108;5.044;2022-08-19T09:22:39;50.72;;;41.22;;
48911;SDS011;34722;52.108;5.044;2022-08-19T09:25:09;47.25;;;39.72;;
48911;SDS011;34722;52.108;5.044;2022-08-19T09:27:37;53.15;;;40.17;;
48911;SDS011;34722;52.108;5.044;2022-08-19T09:30:07;47.33;;;39.88;;
48911;SDS011;34722;52.108;5.044;2022-08-19T09:32:46;44.38;;;39.53;;
48911;SDS011;34722;52.108;5.044;2022-08-19T09:35:12;51.38;;;42.90;;
48911;SDS011;34722;52.108;5.044;2022-08-19T09:37:40;46.60;;;40.05;;
48911;SDS011;34722;52.108;5.044;2022-08-19T09:40:07;47.20;;;38.78;;
48911;SDS011;34722;52.108;5.044;2022-08-19T09:42:34;42.78;;;36.17;;
48911;SDS011;34722;52.108;5.044;2022-08-19T09:44:59;47.05;;;38.15;;
48911;SDS011;34722;52.108;5.044;2022-08-19T09:47:25;42.08;;;34.38;;
48911;SDS011;34722;52.108;5.044;2022-08-19T09:49:51;38.83;;;34.63;;
48911;SDS011;34722;52.108;5.044;2022-08-19T09:52:20;36.97;;;32.97;;
48911;SDS011;34722;52.108;5.044;2022-08-19T09:54:46;37.92;;;33.80;;
48911;SDS011;34722;52.108;5.044;2022-08-19T09:57:12;37.00;;;30.88;;
48911;SDS011;34722;52.108;5.044;2022-08-19T09:59:38;31.63;;;27.65;;
48911;SDS011;34722;52.108;5.044;2022-08-19T10:02:05;31.38;;;28.02;;
48911;SDS011;34722;52.108;5.044;2022-08-19T10:04:30;28.85;;;24.45;;
48911;SDS011;34722;52.108;5.044;2022-08-19T10:07:15;28.45;;;25.50;;
48911;SDS011;34722;52.108;5.044;2022-08-19T10:09:40;28.58;;;24.10;;
48911;SDS011;34722;52.108;5.044;2022-08-19T10:12:07;27.90;;;25.20;;
48911;SDS011;34722;52.108;5.044;2022-08-19T10:14:34;23.42;;;21.02;;
48911;SDS011;34722;52.108;5.044;2022-08-19T10:17:00;20.63;;;18.65;;
48911;SDS011;34722;52.108;5.044;2022-08-19T10:19:27;24.55;;;18.83;;
48911;SDS011;34722;52.108;5.044;2022-08-19T10:21:57;19.85;;;17.80;;
48911;SDS011;34722;52.108;5.044;2022-08-19T10:24:22;24.02;;;21.55;;
48911;SDS011;34722;52.108;5.044;2022-08-19T10:26:50;24.02;;;21.73;;
48911;SDS011;34722;52.108;5.044;2022-08-19T10:29:16;24.30;;;21.70;;
48911;SDS011;34722;52.108;5.044;2022-08-19T10:31:45;23.38;;;20.95;;
48911;SDS011;34722;52.108;5.044;2022-08-19T10:34:12;28.13;;;25.20;;
48911;SDS011;34722;52.108;5.044;2022-08-19T10:36:38;28.52;;;26.08;;
48911;SDS011;34722;52.108;5.044;2022-08-19T10:39:06;30.25;;;25.92;;
48911;SDS011;34722;52.108;5.044;2022-08-19T10:41:38;27.10;;;24.45;;
48911;SDS011;34722;52.108;5.044;2022-08-19T10:44:05;24.60;;;22.05;;
48911;SDS011;34722;52.108;5.044;2022-08-19T10:46:35;23.60;;;20.65;;
48911;SDS011;34722;52.108;5.044;2022-08-19T10:49:04;23.95;;;21.35;;
48911;SDS011;34722;52.108;5.044;2022-08-19T10:51:30;26.80;;;24.15;;
48911;SDS011;34722;52.108;5.044;2022-08-19T10:54:16;27.70;;;25.02;;
48911;SDS011;34722;52.108;5.044;2022-08-19T10:56:42;28.25;;;25.23;;
48911;SDS011;34722;52.108;5.044;2022-08-19T10:59:19;25.20;;;22.85;;
48911;SDS011;34722;52.108;5.044;2022-08-19T11:01:47;25.45;;;23.02;;
48911;SDS011;34722;52.108;5.044;2022-08-19T11:04:13;28.13;;;25.35;;
48911;SDS011;34722;52.108;5.044;2022-08-19T11:06:42;26.80;;;24.20;;
48911;SDS011;34722;52.108;5.044;2022-08-19T11:09:10;24.52;;;21.98;;
48911;SDS011;34722;52.108;5.044;2022-08-19T11:11:37;29.27;;;24.48;;
48911;SDS011;34722;52.108;5.044;2022-08-19T11:14:10;25.40;;;22.83;;
48911;SDS011;34722;52.108;5.044;2022-08-19T11:16:39;25.97;;;23.33;;
48911;SDS011;34722;52.108;5.044;2022-08-19T11:19:06;28.15;;;25.08;;
48911;SDS011;34722;52.108;5.044;2022-08-19T11:21:34;28.48;;;25.60;;
48911;SDS011;34722;52.108;5.044;2022-08-19T11:24:09;29.00;;;24.25;;
48911;SDS011;34722;52.108;5.044;2022-08-19T11:26:37;27.98;;;22.98;;
48911;SDS011;34722;52.108;5.044;2022-08-19T11:29:08;28.23;;;25.33;;
48911;SDS011;34722;52.108;5.044;2022-08-19T11:31:36;26.10;;;23.55;;
48911;SDS011;34722;52.108;5.044;2022-08-19T11:34:05;28.38;;;24.45;;
48911;SDS011;34722;52.108;5.044;2022-08-19T11:36:32;31.75;;;24.70;;
48911;SDS011;34722;52.108;5.044;2022-08-19T11:38:59;25.48;;;22.80;;
48911;SDS011;34722;52.108;5.044;2022-08-19T11:41:26;24.92;;;22.05;;
48911;SDS011;34722;52.108;5.044;2022-08-19T11:43:52;25.90;;;20.92;;
48911;SDS011;34722;52.108;5.044;2022-08-19T11:46:20;24.08;;;21.58;;
48911;SDS011;34722;52.108;5.044;2022-08-19T11:48:47;22.38;;;20.13;;
48911;SDS011;34722;52.108;5.044;2022-08-19T11:51:16;23.60;;;19.30;;
48911;SDS011;34722;52.108;5.044;2022-08-19T11:53:44;22.65;;;19.02;;
48911;SDS011;34722;52.108;5.044;2022-08-19T11:56:11;24.42;;;18.55;;
48911;SDS011;34722;52.108;5.044;2022-08-19T11:58:38;20.10;;;18.00;;
48911;SDS011;34722;52.108;5.044;2022-08-19T12:03:56;19.15;;;16.85;;
48911;SDS011;34722;52.108;5.044;2022-08-19T12:06:25;19.65;;;17.75;;
48911;SDS011;34722;52.108;5.044;2022-08-19T12:08:57;22.60;;;16.42;;
48911;SDS011;34722;52.108;5.044;2022-08-19T12:11:30;17.85;;;15.95;;
48911;SDS011;34722;52.108;5.044;2022-08-19T12:13:56;17.40;;;15.05;;
48911;SDS011;34722;52.108;5.044;2022-08-19T12:16:25;16.20;;;14.45;;
48911;SDS011;34722;52.108;5.044;2022-08-19T12:18:53;16.65;;;14.30;;
48911;SDS011;34722;52.108;5.044;2022-08-19T12:21:23;14.38;;;12.48;;
48911;SDS011;34722;52.108;5.044;2022-08-19T12:26:19;20.88;;;14.18;;
48911;SDS011;34722;52.108;5.044;2022-08-19T12:28:46;17.70;;;11.85;;
48911;SDS011;34722;52.108;5.044;2022-08-19T12:31:14;15.15;;;12.73;;
48911;SDS011;34722;52.108;5.044;2022-08-19T12:33:40;15.05;;;13.38;;
48911;SDS011;34722;52.108;5.044;2022-08-19T12:36:07;16.42;;;13.68;;
48911;SDS011;34722;52.108;5.044;2022-08-19T12:38:35;17.10;;;12.82;;
48911;SDS011;34722;52.108;5.044;2022-08-19T12:41:03;16.25;;;12.43;;
48911;SDS011;34722;52.108;5.044;2022-08-19T12:43:33;13.50;;;12.10;;
48911;SDS011;34722;52.108;5.044;2022-08-19T12:45:59;16.73;;;12.10;;
48911;SDS011;34722;52.108;5.044;2022-08-19T12:48:25;15.93;;;12.55;;
48911;SDS011;34722;52.108;5.044;2022-08-19T12:50:51;18.63;;;13.25;;
48911;SDS011;34722;52.108;5.044;2022-08-19T12:53:17;20.30;;;12.82;;
48911;SDS011;34722;52.108;5.044;2022-08-19T12:55:43;15.50;;;13.68;;
48911;SDS011;34722;52.108;5.044;2022-08-19T12:58:09;14.48;;;12.32;;
48911;SDS011;34722;52.108;5.044;2022-08-19T13:00:35;12.45;;;9.65;;
48911;SDS011;34722;52.108;5.044;2022-08-19T13:03:01;13.15;;;9.98;;
48911;SDS011;34722;52.108;5.044;2022-08-19T13:05:27;10.57;;;8.45;;
48911;SDS011;34722;52.108;5.044;2022-08-19T13:07:56;9.02;;;7.28;;
48911;SDS011;34722;52.108;5.044;2022-08-19T13:10:27;8.48;;;7.32;;
48911;SDS011;34722;52.108;5.044;2022-08-19T13:13:00;11.80;;;6.68;;
48911;SDS011;34722;52.108;5.044;2022-08-19T13:15:32;7.70;;;6.65;;
48911;SDS011;34722;52.108;5.044;2022-08-19T13:18:00;10.60;;;6.57;;
48911;SDS011;34722;52.108;5.044;2022-08-19T13:20:26;8.20;;;6.60;;
48911;SDS011;34722;52.108;5.044;2022-08-19T13:22:55;6.97;;;6.10;;
48911;SDS011;34722;52.108;5.044;2022-08-19T13:25:25;6.40;;;5.80;;
48911;SDS011;34722;52.108;5.044;2022-08-19T13:27:51;7.35;;;5.10;;
48911;SDS011;34722;52.108;5.044;2022-08-19T13:30:17;10.40;;;5.35;;
48911;SDS011;34722;52.108;5.044;2022-08-19T13:33:15;3.95;;;3.53;;
48911;SDS011;34722;52.108;5.044;2022-08-19T13:35:45;6.88;;;5.68;;
48911;SDS011;34722;52.108;5.044;2022-08-19T13:38:17;4.70;;;3.40;;
48911;SDS011;34722;52.108;5.044;2022-08-19T13:40:45;9.73;;;4.38;;
48911;SDS011;34722;52.108;5.044;2022-08-19T13:43:12;5.35;;;4.60;;
48911;SDS011;34722;52.108;5.044;2022-08-19T13:45:39;8.05;;;4.28;;
48911;SDS011;34722;52.108;5.044;2022-08-19T13:48:05;7.63;;;3.78;;
48911;SDS011;34722;52.108;5.044;2022-08-19T13:50:33;4.25;;;3.70;;
48911;SDS011;34722;52.108;5.044;2022-08-19T13:53:02;6.95;;;6.35;;
48911;SDS011;34722;52.108;5.044;2022-08-19T13:55:29;9.63;;;6.65;;
48911;SDS011;34722;52.108;5.044;2022-08-19T13:57:55;10.18;;;7.45;;
48911;SDS011;34722;52.108;5.044;2022-08-19T14:00:24;10.15;;;8.00;;
48911;SDS011;34722;52.108;5.044;2022-08-19T14:02:52;11.70;;;8.20;;
48911;SDS011;34722;52.108;5.044;2022-08-19T14:05:24;8.95;;;7.32;;
48911;SDS011;34722;52.108;5.044;2022-08-19T14:07:52;11.10;;;7.72;;
48911;SDS011;34722;52.108;5.044;2022-08-19T14:10:18;7.97;;;7.03;;
48911;SDS011;34722;52.108;5.044;2022-08-19T14:12:44;9.15;;;6.85;;
48911;SDS011;34722;52.108;5.044;2022-08-19T14:15:11;8.60;;;7.82;;
48911;SDS011;34722;52.108;5.044;2022-08-19T14:17:39;8.18;;;7.47;;
48911;SDS011;34722;52.108;5.044;2022-08-19T14:20:06;10.43;;;7.50;;
48911;SDS011;34722;52.108;5.044;2022-08-19T14:22:37;8.98;;;7.22;;
48911;SDS011;34722;52.108;5.044;2022-08-19T14:25:06;12.80;;;7.70;;
48911;SDS011;34722;52.108;5.044;2022-08-19T14:27:34;8.15;;;7.32;;
48911;SDS011;34722;52.108;5.044;2022-08-19T14:30:01;8.65;;;7.85;;
48911;SDS011;34722;52.108;5.044;2022-08-19T14:32:27;9.60;;;8.00;;
48911;SDS011;34722;52.108;5.044;2022-08-19T14:34:56;9.50;;;8.60;;
48911;SDS011;34722;52.108;5.044;2022-08-19T14:45:04;7.05;;;6.35;;
48911;SDS011;34722;52.108;5.044;2022-08-19T18:35:52;4.07;;;3.17;;
48911;SDS011;34722;52.108;5.044;2022-08-19T18:38:20;2.97;;;2.35;;
48911;SDS011;34722;52.108;5.044;2022-08-19T18:41:08;3.45;;;3.15;;
48911;SDS011;34722;52.108;5.044;2022-08-19T18:43:56;4.82;;;3.92;;
48911;SDS011;34722;52.108;5.044;2022-08-19T18:46:46;4.03;;;2.97;;
48911;SDS011;34722;52.108;5.044;2022-08-19T18:49:52;5.43;;;2.97;;
48911;SDS011;34722;52.108;5.044;2022-08-19T18:56:02;5.72;;;4.68;;
48911;SDS011;34722;52.108;5.044;2022-08-19T18:59:16;8.00;;;5.22;;
48911;SDS011;34722;52.108;5.044;2022-08-19T19:02:38;6.93;;;5.55;;
48911;SDS011;34722;52.108;5.044;2022-08-19T19:05:21;7.25;;;6.07;;
48911;SDS011;34722;52.108;5.044;2022-08-19T19:07:54;8.73;;;6.10;;
48911;SDS011;34722;52.108;5.044;2022-08-19T19:10:29;16.90;;;6.82;;
48911;SDS011;34722;52.108;5.044;2022-08-19T19:13:48;9.93;;;8.50;;